sensor_id;sensor_type;location;lat;lon;timestamp;pressure;altitude;pressure_sealevel;temperature;humidity
52957;BME280;38819;42.692;23.342;2023-05-11T00:01:31;95518.44;;;12.16;62.66
52957;BME280;38819;42.692;23.342;2023-05-11T00:03:58;95517.88;;;12.14;62.25
52957;BME280;38819;42.692;23.342;2023-05-11T00:06:23;95514.69;;;12.12;62.43
52957;BME280;38819;42.692;23.342;2023-05-11T00:08:49;95516.38;;;12.08;62.42
52957;BME280;38819;42.692;23.342;2023-05-11T00:11:14;95512.13;;;12.02;62.61
52957;BME280;38819;42.692;23.342;2023-05-11T00:13:40;95517.56;;;12.02;63.13
52957;BME280;38819;42.692;23.342;2023-05-11T00:16:06;95517.75;;;12.05;62.83
52957;BME280;38819;42.692;23.342;2023-05-11T00:18:31;95516.75;;;12.01;63.02
52957;BME280;38819;42.692;23.342;2023-05-11T00:20:57;95516.22;;;11.99;63.25
52957;BME280;38819;42.692;23.342;2023-05-11T00:23:23;95516.63;;;11.87;62.98
52957;BME280;38819;42.692;23.342;2023-05-11T00:25:48;95511.00;;;11.84;62.69
52957;BME280;38819;42.692;23.342;2023-05-11T00:28:13;95515.13;;;11.81;62.73
52957;BME280;38819;42.692;23.342;2023-05-11T00:30:39;95520.31;;;11.78;62.63
52957;BME280;38819;42.692;23.342;2023-05-11T00:33:05;95514.22;;;11.67;62.71
52957;BME280;38819;42.692;23.342;2023-05-11T00:35:31;95508.66;;;11.58;63.01
52957;BME280;38819;42.692;23.342;2023-05-11T00:37:57;95521.25;;;11.68;62.65
52957;BME280;38819;42.692;23.342;2023-05-11T00:40:23;95507.06;;;11.57;62.78
52957;BME280;38819;42.692;23.342;2023-05-11T00:42:48;95509.41;;;11.64;62.49
52957;BME280;38819;42.692;23.342;2023-05-11T00:45:13;95521.63;;;11.61;62.37
52957;BME280;38819;42.692;23.342;2023-05-11T00:47:40;95522.50;;;11.57;62.77
52957;BME280;38819;42.692;23.342;2023-05-11T00:50:06;95529.19;;;11.59;62.35
52957;BME280;38819;42.692;23.342;2023-05-11T00:52:32;95520.94;;;11.50;62.75
52957;BME280;38819;42.692;23.342;2023-05-11T00:54:58;95525.19;;;11.57;62.25
52957;BME280;38819;42.692;23.342;2023-05-11T00:57:24;95510.88;;;11.56;62.13
52957;BME280;38819;42.692;23.342;2023-05-11T00:59:49;95516.44;;;11.65;61.92
52957;BME280;38819;42.692;23.342;2023-05-11T01:02:15;95530.25;;;11.63;61.73
52957;BME280;38819;42.692;23.342;2023-05-11T01:04:41;95520.28;;;11.59;61.79
52957;BME280;38819;42.692;23.342;2023-05-11T01:07:22;95519.50;;;11.58;61.54
52957;BME280;38819;42.692;23.342;2023-05-11T01:10:01;95517.22;;;11.65;61.25
52957;BME280;38819;42.692;23.342;2023-05-11T01:12:52;95516.34;;;11.70;61.03
52957;BME280;38819;42.692;23.342;2023-05-11T01:15:33;95523.16;;;11.67;60.92
52957;BME280;38819;42.692;23.342;2023-05-11T01:20:33;95516.56;;;11.55;60.79
52957;BME280;38819;42.692;23.342;2023-05-11T01:31:23;95523.50;;;11.61;60.80
52957;BME280;38819;42.692;23.342;2023-05-11T01:33:57;95531.88;;;11.64;60.68
52957;BME280;38819;42.692;23.342;2023-05-11T01:36:29;95533.25;;;11.62;60.89
52957;BME280;38819;42.692;23.342;2023-05-11T01:39:00;95526.97;;;11.66;60.71
52957;BME280;38819;42.692;23.342;2023-05-11T01:41:27;95530.25;;;11.63;60.81
52957;BME280;38819;42.692;23.342;2023-05-11T01:43:56;95521.03;;;11.64;60.83
52957;BME280;38819;42.692;23.342;2023-05-11T01:46:25;95525.84;;;11.67;60.84
52957;BME280;38819;42.692;23.342;2023-05-11T01:48:53;95526.47;;;11.64;60.67
52957;BME280;38819;42.692;23.342;2023-05-11T01:51:21;95528.06;;;11.65;60.64
52957;BME280;38819;42.692;23.342;2023-05-11T01:53:48;95531.34;;;11.62;61.05
52957;BME280;38819;42.692;23.342;2023-05-11T01:56:15;95525.91;;;11.62;60.91
52957;BME280;38819;42.692;23.342;2023-05-11T01:58:44;95532.66;;;11.65;60.57
52957;BME280;38819;42.692;23.342;2023-05-11T02:01:11;95535.94;;;11.62;60.66
52957;BME280;38819;42.692;23.342;2023-05-11T02:03:38;95521.09;;;11.59;60.31
52957;BME280;38819;42.692;23.342;2023-05-11T02:06:06;95529.53;;;11.58;60.60
52957;BME280;38819;42.692;23.342;2023-05-11T02:08:34;95525.41;;;11.60;60.69
52957;BME280;38819;42.692;23.342;2023-05-11T02:11:01;95528.56;;;11.67;60.55
52957;BME280;38819;42.692;23.342;2023-05-11T02:13:28;95523.78;;;11.59;60.45
52957;BME280;38819;42.692;23.342;2023-05-11T02:15:56;95528.47;;;11.54;60.50
52957;BME280;38819;42.692;23.342;2023-05-11T02:18:22;95519.84;;;11.52;60.74
52957;BME280;38819;42.692;23.342;2023-05-11T02:20:48;95524.16;;;11.53;61.01
52957;BME280;38819;42.692;23.342;2023-05-11T02:23:16;95520.94;;;11.50;61.16
52957;BME280;38819;42.692;23.342;2023-05-11T02:25:42;95523.44;;;11.47;60.86
52957;BME280;38819;42.692;23.342;2023-05-11T02:28:08;95521.34;;;11.39;61.01
52957;BME280;38819;42.692;23.342;2023-05-11T02:30:45;95514.13;;;11.34;61.12
52957;BME280;38819;42.692;23.342;2023-05-11T02:33:15;95521.94;;;11.36;61.08
52957;BME280;38819;42.692;23.342;2023-05-11T02:35:42;95523.69;;;11.26;61.43
52957;BME280;38819;42.692;23.342;2023-05-11T02:38:08;95520.28;;;11.16;61.57
52957;BME280;38819;42.692;23.342;2023-05-11T02:40:39;95524.09;;;11.15;61.95
52957;BME280;38819;42.692;23.342;2023-05-11T02:43:12;95521.84;;;10.98;62.29
52957;BME280;38819;42.692;23.342;2023-05-11T02:45:41;95522.44;;;10.94;62.56
52957;BME280;38819;42.692;23.342;2023-05-11T02:48:11;95515.22;;;10.85;62.66
52957;BME280;38819;42.692;23.342;2023-05-11T02:50:42;95526.56;;;10.87;62.94
52957;BME280;38819;42.692;23.342;2023-05-11T02:53:14;95521.66;;;10.89;62.96
52957;BME280;38819;42.692;23.342;2023-05-11T02:55:40;95515.41;;;10.93;62.77
52957;BME280;38819;42.692;23.342;2023-05-11T02:58:07;95511.34;;;10.96;62.77
52957;BME280;38819;42.692;23.342;2023-05-11T03:00:33;95512.13;;;10.97;62.61
52957;BME280;38819;42.692;23.342;2023-05-11T03:02:58;95516.97;;;11.00;62.42
52957;BME280;38819;42.692;23.342;2023-05-11T03:05:24;95514.19;;;11.05;62.24
52957;BME280;38819;42.692;23.342;2023-05-11T03:07:52;95512.59;;;11.04;62.09
52957;BME280;38819;42.692;23.342;2023-05-11T03:10:20;95505.53;;;11.08;62.24
52957;BME280;38819;42.692;23.342;2023-05-11T03:12:46;95512.28;;;11.05;62.17
52957;BME280;38819;42.692;23.342;2023-05-11T03:15:12;95515.84;;;11.01;62.28
52957;BME280;38819;42.692;23.342;2023-05-11T03:17:38;95513.97;;;11.01;62.37
52957;BME280;38819;42.692;23.342;2023-05-11T03:20:06;95514.09;;;10.91;62.63
52957;BME280;38819;42.692;23.342;2023-05-11T03:22:33;95520.81;;;10.93;62.71
52957;BME280;38819;42.692;23.342;2023-05-11T03:25:01;95514.38;;;10.89;62.59
52957;BME280;38819;42.692;23.342;2023-05-11T03:27:28;95523.50;;;10.93;62.85
52957;BME280;38819;42.692;23.342;2023-05-11T03:29:55;95523.56;;;10.88;62.75
52957;BME280;38819;42.692;23.342;2023-05-11T03:32:21;95523.22;;;10.95;62.69
52957;BME280;38819;42.692;23.342;2023-05-11T03:34:47;95524.03;;;10.96;62.81
52957;BME280;38819;42.692;23.342;2023-05-11T03:37:13;95530.38;;;10.81;63.22
52957;BME280;38819;42.692;23.342;2023-05-11T03:39:40;95524.91;;;10.91;62.94
52957;BME280;38819;42.692;23.342;2023-05-11T03:42:08;95526.78;;;10.90;63.37
52957;BME280;38819;42.692;23.342;2023-05-11T03:44:35;95525.75;;;10.86;63.32
52957;BME280;38819;42.692;23.342;2023-05-11T03:47:02;95527.41;;;10.82;63.54
52957;BME280;38819;42.692;23.342;2023-05-11T03:49:28;95531.50;;;10.80;63.51
52957;BME280;38819;42.692;23.342;2023-05-11T03:51:55;95523.69;;;10.78;63.81
52957;BME280;38819;42.692;23.342;2023-05-11T03:54:21;95535.00;;;10.80;63.85
52957;BME280;38819;42.692;23.342;2023-05-11T03:56:46;95530.66;;;10.84;63.85
52957;BME280;38819;42.692;23.342;2023-05-11T03:59:15;95534.72;;;10.82;63.89
52957;BME280;38819;42.692;23.342;2023-05-11T04:01:42;95536.13;;;10.74;64.28
52957;BME280;38819;42.692;23.342;2023-05-11T04:04:07;95536.78;;;10.61;64.79
52957;BME280;38819;42.692;23.342;2023-05-11T04:06:33;95535.94;;;10.65;64.84
52957;BME280;38819;42.692;23.342;2023-05-11T04:08:58;95537.25;;;10.73;64.75
52957;BME280;38819;42.692;23.342;2023-05-11T04:11:24;95544.72;;;10.81;64.72
52957;BME280;38819;42.692;23.342;2023-05-11T04:13:51;95548.16;;;10.87;64.50
52957;BME280;38819;42.692;23.342;2023-05-11T04:16:17;95538.22;;;10.82;64.65
52957;BME280;38819;42.692;23.342;2023-05-11T04:18:42;95536.72;;;10.71;64.97
52957;BME280;38819;42.692;23.342;2023-05-11T04:21:07;95540.22;;;10.71;65.51
52957;BME280;38819;42.692;23.342;2023-05-11T04:23:33;95543.44;;;10.73;65.17
52957;BME280;38819;42.692;23.342;2023-05-11T04:25:58;95545.53;;;10.82;65.25
52957;BME280;38819;42.692;23.342;2023-05-11T04:28:24;95542.06;;;10.76;65.44
52957;BME280;38819;42.692;23.342;2023-05-11T04:30:56;95548.56;;;10.75;65.56
52957;BME280;38819;42.692;23.342;2023-05-11T04:33:22;95551.72;;;10.82;65.34
52957;BME280;38819;42.692;23.342;2023-05-11T04:35:52;95555.72;;;10.90;65.45
52957;BME280;38819;42.692;23.342;2023-05-11T04:38:19;95553.00;;;10.90;65.23
52957;BME280;38819;42.692;23.342;2023-05-11T04:40:45;95559.84;;;10.82;65.75
52957;BME280;38819;42.692;23.342;2023-05-11T04:43:12;95552.50;;;10.88;65.65
52957;BME280;38819;42.692;23.342;2023-05-11T04:45:38;95552.56;;;10.83;65.66
52957;BME280;38819;42.692;23.342;2023-05-11T04:48:04;95563.88;;;10.85;65.89
52957;BME280;38819;42.692;23.342;2023-05-11T04:50:30;95567.19;;;10.77;66.26
52957;BME280;38819;42.692;23.342;2023-05-11T04:52:56;95554.81;;;10.70;66.47
52957;BME280;38819;42.692;23.342;2023-05-11T04:55:21;95563.16;;;10.74;66.28
52957;BME280;38819;42.692;23.342;2023-05-11T04:57:46;95557.50;;;10.70;66.41
52957;BME280;38819;42.692;23.342;2023-05-11T05:00:12;95559.19;;;10.66;66.49
52957;BME280;38819;42.692;23.342;2023-05-11T05:02:38;95566.78;;;10.64;66.51
52957;BME280;38819;42.692;23.342;2023-05-11T05:05:03;95579.22;;;10.60;66.93
52957;BME280;38819;42.692;23.342;2023-05-11T05:07:29;95573.81;;;10.60;67.06
52957;BME280;38819;42.692;23.342;2023-05-11T05:09:54;95571.84;;;10.71;66.61
52957;BME280;38819;42.692;23.342;2023-05-11T05:12:19;95574.34;;;10.62;66.97
52957;BME280;38819;42.692;23.342;2023-05-11T05:14:45;95575.13;;;10.68;66.84
52957;BME280;38819;42.692;23.342;2023-05-11T05:17:10;95577.81;;;10.68;66.89
52957;BME280;38819;42.692;23.342;2023-05-11T05:19:36;95587.41;;;10.50;67.13
52957;BME280;38819;42.692;23.342;2023-05-11T05:22:01;95580.34;;;10.54;67.55
52957;BME280;38819;42.692;23.342;2023-05-11T05:24:27;95581.97;;;10.55;67.56
52957;BME280;38819;42.692;23.342;2023-05-11T05:26:52;95575.81;;;10.49;67.82
52957;BME280;38819;42.692;23.342;2023-05-11T05:29:17;95580.84;;;10.61;67.53
52957;BME280;38819;42.692;23.342;2023-05-11T05:31:43;95582.19;;;10.59;67.60
52957;BME280;38819;42.692;23.342;2023-05-11T05:34:08;95580.16;;;10.45;67.96
52957;BME280;38819;42.692;23.342;2023-05-11T05:36:34;95577.13;;;10.52;67.78
52957;BME280;38819;42.692;23.342;2023-05-11T05:38:59;95582.44;;;10.62;67.42
52957;BME280;38819;42.692;23.342;2023-05-11T05:41:24;95588.66;;;10.63;67.73
52957;BME280;38819;42.692;23.342;2023-05-11T05:43:50;95592.78;;;10.55;67.97
52957;BME280;38819;42.692;23.342;2023-05-11T05:46:16;95591.47;;;10.52;67.66
52957;BME280;38819;42.692;23.342;2023-05-11T05:48:41;95594.81;;;10.39;68.29
52957;BME280;38819;42.692;23.342;2023-05-11T05:51:07;95587.47;;;10.45;68.23
52957;BME280;38819;42.692;23.342;2023-05-11T05:53:32;95590.88;;;10.55;67.85
52957;BME280;38819;42.692;23.342;2023-05-11T05:55:58;95589.34;;;10.44;68.33
52957;BME280;38819;42.692;23.342;2023-05-11T05:58:23;95597.66;;;10.53;68.00
52957;BME280;38819;42.692;23.342;2023-05-11T06:00:49;95602.19;;;10.63;67.71
52957;BME280;38819;42.692;23.342;2023-05-11T06:03:15;95604.59;;;10.59;67.70
52957;BME280;38819;42.692;23.342;2023-05-11T06:05:40;95603.63;;;10.50;67.59
52957;BME280;38819;42.692;23.342;2023-05-11T06:08:06;95601.28;;;10.38;68.09
52957;BME280;38819;42.692;23.342;2023-05-11T06:10:31;95605.88;;;10.37;68.26
52957;BME280;38819;42.692;23.342;2023-05-11T06:12:56;95613.41;;;10.41;68.19
52957;BME280;38819;42.692;23.342;2023-05-11T06:15:22;95602.06;;;10.38;68.20
52957;BME280;38819;42.692;23.342;2023-05-11T06:17:47;95602.03;;;10.44;67.95
52957;BME280;38819;42.692;23.342;2023-05-11T06:20:13;95604.69;;;10.49;67.56
52957;BME280;38819;42.692;23.342;2023-05-11T06:22:38;95611.41;;;10.56;67.52
52957;BME280;38819;42.692;23.342;2023-05-11T06:25:04;95618.16;;;10.54;67.58
52957;BME280;38819;42.692;23.342;2023-05-11T06:27:30;95615.97;;;10.61;67.54
52957;BME280;38819;42.692;23.342;2023-05-11T06:29:55;95617.13;;;10.50;67.78
52957;BME280;38819;42.692;23.342;2023-05-11T06:32:21;95621.47;;;10.46;68.09
52957;BME280;38819;42.692;23.342;2023-05-11T06:34:46;95621.16;;;10.52;67.72
52957;BME280;38819;42.692;23.342;2023-05-11T06:37:12;95627.88;;;10.55;67.58
52957;BME280;38819;42.692;23.342;2023-05-11T06:39:44;95617.03;;;10.60;67.51
52957;BME280;38819;42.692;23.342;2023-05-11T06:42:10;95620.50;;;10.66;67.50
52957;BME280;38819;42.692;23.342;2023-05-11T06:44:35;95631.81;;;10.73;66.93
52957;BME280;38819;42.692;23.342;2023-05-11T06:47:01;95630.13;;;10.77;66.86
52957;BME280;38819;42.692;23.342;2023-05-11T06:49:26;95624.97;;;10.81;66.57
52957;BME280;38819;42.692;23.342;2023-05-11T06:51:52;95623.38;;;10.80;66.64
52957;BME280;38819;42.692;23.342;2023-05-11T06:54:17;95627.94;;;10.84;66.28
52957;BME280;38819;42.692;23.342;2023-05-11T06:56:42;95626.53;;;10.87;65.95
52957;BME280;38819;42.692;23.342;2023-05-11T06:59:08;95624.63;;;10.87;65.97
52957;BME280;38819;42.692;23.342;2023-05-11T07:01:33;95619.94;;;10.98;65.53
52957;BME280;38819;42.692;23.342;2023-05-11T07:03:59;95627.72;;;11.05;65.48
52957;BME280;38819;42.692;23.342;2023-05-11T07:06:24;95615.56;;;11.02;65.08
52957;BME280;38819;42.692;23.342;2023-05-11T07:08:50;95616.25;;;10.89;65.25
52957;BME280;38819;42.692;23.342;2023-05-11T07:11:15;95613.78;;;10.92;65.46
52957;BME280;38819;42.692;23.342;2023-05-11T07:13:40;95622.72;;;10.93;65.14
52957;BME280;38819;42.692;23.342;2023-05-11T07:16:06;95612.66;;;10.99;65.39
52957;BME280;38819;42.692;23.342;2023-05-11T07:18:33;95618.34;;;10.97;65.31
52957;BME280;38819;42.692;23.342;2023-05-11T07:20:58;95613.97;;;11.01;64.88
52957;BME280;38819;42.692;23.342;2023-05-11T07:23:23;95627.50;;;11.01;64.46
52957;BME280;38819;42.692;23.342;2023-05-11T07:25:50;95618.72;;;11.15;64.11
52957;BME280;38819;42.692;23.342;2023-05-11T07:28:15;95619.28;;;11.11;63.60
52957;BME280;38819;42.692;23.342;2023-05-11T07:30:41;95615.91;;;11.25;63.38
52957;BME280;38819;42.692;23.342;2023-05-11T07:33:06;95628.22;;;11.36;63.35
52957;BME280;38819;42.692;23.342;2023-05-11T07:35:32;95629.06;;;11.56;62.57
52957;BME280;38819;42.692;23.342;2023-05-11T07:37:57;95620.63;;;11.38;61.75
52957;BME280;38819;42.692;23.342;2023-05-11T07:40:22;95620.22;;;11.50;61.09
52957;BME280;38819;42.692;23.342;2023-05-11T07:42:48;95621.78;;;11.56;61.33
52957;BME280;38819;42.692;23.342;2023-05-11T07:45:14;95619.75;;;11.67;61.81
52957;BME280;38819;42.692;23.342;2023-05-11T07:47:39;95621.88;;;11.94;61.07
52957;BME280;38819;42.692;23.342;2023-05-11T07:50:06;95620.00;;;12.14;61.51
52957;BME280;38819;42.692;23.342;2023-05-11T07:52:31;95625.09;;;12.34;61.58
52957;BME280;38819;42.692;23.342;2023-05-11T07:54:57;95626.78;;;12.49;60.82
52957;BME280;38819;42.692;23.342;2023-05-11T07:57:22;95625.31;;;12.57;59.87
52957;BME280;38819;42.692;23.342;2023-05-11T07:59:47;95626.03;;;12.63;59.21
52957;BME280;38819;42.692;23.342;2023-05-11T08:02:13;95635.03;;;12.77;59.68
52957;BME280;38819;42.692;23.342;2023-05-11T08:04:38;95633.38;;;12.95;59.24
52957;BME280;38819;42.692;23.342;2023-05-11T08:07:04;95632.09;;;13.06;58.58
52957;BME280;38819;42.692;23.342;2023-05-11T08:09:30;95629.22;;;13.16;58.20
52957;BME280;38819;42.692;23.342;2023-05-11T08:11:56;95631.75;;;13.27;57.64
52957;BME280;38819;42.692;23.342;2023-05-11T08:14:22;95625.59;;;13.21;57.31
52957;BME280;38819;42.692;23.342;2023-05-11T08:16:48;95626.25;;;12.99;57.01
52957;BME280;38819;42.692;23.342;2023-05-11T08:19:14;95626.25;;;12.99;57.46
52957;BME280;38819;42.692;23.342;2023-05-11T08:21:40;95623.50;;;13.18;57.90
52957;BME280;38819;42.692;23.342;2023-05-11T08:24:06;95621.88;;;13.31;57.38
52957;BME280;38819;42.692;23.342;2023-05-11T08:26:31;95628.13;;;13.31;57.05
52957;BME280;38819;42.692;23.342;2023-05-11T08:28:57;95620.91;;;13.27;56.71
52957;BME280;38819;42.692;23.342;2023-05-11T08:31:23;95613.19;;;13.34;57.05
52957;BME280;38819;42.692;23.342;2023-05-11T08:33:48;95620.78;;;13.18;57.24
52957;BME280;38819;42.692;23.342;2023-05-11T08:36:14;95625.47;;;13.12;57.00
52957;BME280;38819;42.692;23.342;2023-05-11T08:38:40;95638.25;;;13.12;57.91
52957;BME280;38819;42.692;23.342;2023-05-11T08:41:05;95628.06;;;12.90;57.61
52957;BME280;38819;42.692;23.342;2023-05-11T08:43:33;95633.09;;;12.96;57.66
52957;BME280;38819;42.692;23.342;2023-05-11T08:46:03;95622.34;;;12.91;57.43
52957;BME280;38819;42.692;23.342;2023-05-11T08:48:31;95621.56;;;13.05;57.46
52957;BME280;38819;42.692;23.342;2023-05-11T08:50:57;95622.75;;;12.98;56.94
52957;BME280;38819;42.692;23.342;2023-05-11T08:53:23;95622.34;;;12.91;56.80
52957;BME280;38819;42.692;23.342;2023-05-11T08:55:49;95624.69;;;12.79;57.74
52957;BME280;38819;42.692;23.342;2023-05-11T08:58:16;95631.28;;;12.73;58.30
52957;BME280;38819;42.692;23.342;2023-05-11T09:00:50;95624.47;;;12.75;57.94
52957;BME280;38819;42.692;23.342;2023-05-11T09:03:17;95616.97;;;12.86;58.06
52957;BME280;38819;42.692;23.342;2023-05-11T09:05:47;95623.03;;;12.97;58.01
52957;BME280;38819;42.692;23.342;2023-05-11T09:08:14;95623.34;;;13.09;58.29
52957;BME280;38819;42.692;23.342;2023-05-11T09:10:43;95615.66;;;13.30;58.23
52957;BME280;38819;42.692;23.342;2023-05-11T09:13:09;95624.84;;;13.34;57.84
52957;BME280;38819;42.692;23.342;2023-05-11T09:15:35;95606.38;;;13.37;57.73
52957;BME280;38819;42.692;23.342;2023-05-11T09:18:00;95621.81;;;13.36;57.86
52957;BME280;38819;42.692;23.342;2023-05-11T09:20:30;95603.13;;;13.34;57.61
52957;BME280;38819;42.692;23.342;2023-05-11T09:22:57;95618.97;;;13.27;57.83
52957;BME280;38819;42.692;23.342;2023-05-11T09:25:24;95621.00;;;13.22;58.48
52957;BME280;38819;42.692;23.342;2023-05-11T09:27:50;95625.72;;;13.30;58.67
52957;BME280;38819;42.692;23.342;2023-05-11T09:30:21;95614.34;;;13.28;58.96
52957;BME280;38819;42.692;23.342;2023-05-11T09:32:54;95618.38;;;13.30;58.14
52957;BME280;38819;42.692;23.342;2023-05-11T09:35:29;95625.16;;;13.47;58.39
52957;BME280;38819;42.692;23.342;2023-05-11T09:38:09;95620.13;;;13.40;58.00
52957;BME280;38819;42.692;23.342;2023-05-11T09:40:39;95622.03;;;13.40;58.08
52957;BME280;38819;42.692;23.342;2023-05-11T09:45:45;95617.94;;;13.70;58.02
52957;BME280;38819;42.692;23.342;2023-05-11T09:50:46;95614.31;;;13.47;57.68
52957;BME280;38819;42.692;23.342;2023-05-11T09:53:11;95607.59;;;13.58;57.72
52957;BME280;38819;42.692;23.342;2023-05-11T09:55:37;95601.13;;;13.68;57.54
52957;BME280;38819;42.692;23.342;2023-05-11T09:58:02;95596.81;;;13.53;57.83
52957;BME280;38819;42.692;23.342;2023-05-11T10:00:29;95592.88;;;13.59;57.79
52957;BME280;38819;42.692;23.342;2023-05-11T10:03:00;95590.50;;;13.44;58.11
52957;BME280;38819;42.692;23.342;2023-05-11T10:05:27;95592.34;;;13.29;58.58
52957;BME280;38819;42.692;23.342;2023-05-11T10:08:03;95595.66;;;13.26;58.23
52957;BME280;38819;42.692;23.342;2023-05-11T10:10:30;95582.91;;;13.27;58.37
52957;BME280;38819;42.692;23.342;2023-05-11T10:12:58;95586.56;;;13.50;58.60
52957;BME280;38819;42.692;23.342;2023-05-11T10:15:25;95582.22;;;13.63;58.21
52957;BME280;38819;42.692;23.342;2023-05-11T10:17:56;95576.22;;;13.52;57.72
52957;BME280;38819;42.692;23.342;2023-05-11T10:20:23;95574.91;;;13.49;57.77
52957;BME280;38819;42.692;23.342;2023-05-11T10:22:53;95572.78;;;13.32;57.39
52957;BME280;38819;42.692;23.342;2023-05-11T10:25:24;95578.72;;;13.34;57.92
52957;BME280;38819;42.692;23.342;2023-05-11T10:27:50;95585.03;;;13.58;57.83
52957;BME280;38819;42.692;23.342;2023-05-11T10:30:17;95571.28;;;13.82;57.32
52957;BME280;38819;42.692;23.342;2023-05-11T10:32:44;95568.69;;;13.99;56.54
52957;BME280;38819;42.692;23.342;2023-05-11T10:35:12;95559.88;;;13.94;56.75
52957;BME280;38819;42.692;23.342;2023-05-11T10:37:39;95561.25;;;14.05;56.53
52957;BME280;38819;42.692;23.342;2023-05-11T10:40:05;95554.59;;;14.11;56.80
52957;BME280;38819;42.692;23.342;2023-05-11T10:43:20;95550.66;;;14.17;56.79
52957;BME280;38819;42.692;23.342;2023-05-11T10:45:47;95549.47;;;14.09;55.68
52957;BME280;38819;42.692;23.342;2023-05-11T11:01:42;95558.63;;;14.14;56.32
52957;BME280;38819;42.692;23.342;2023-05-11T11:04:12;95548.50;;;14.28;55.76
52957;BME280;38819;42.692;23.342;2023-05-11T11:06:40;95545.22;;;14.40;55.98
52957;BME280;38819;42.692;23.342;2023-05-11T11:09:09;95551.03;;;14.47;56.13
52957;BME280;38819;42.692;23.342;2023-05-11T11:11:46;95553.34;;;14.54;55.52
52957;BME280;38819;42.692;23.342;2023-05-11T11:14:16;95548.06;;;14.57;55.02
52957;BME280;38819;42.692;23.342;2023-05-11T11:19:40;95544.38;;;14.76;54.47
52957;BME280;38819;42.692;23.342;2023-05-11T11:25:01;95536.53;;;15.06;54.79
52957;BME280;38819;42.692;23.342;2023-05-11T11:30:26;95542.34;;;15.22;54.29
52957;BME280;38819;42.692;23.342;2023-05-11T11:38:06;95538.56;;;15.40;52.64
52957;BME280;38819;42.692;23.342;2023-05-11T11:40:43;95531.59;;;15.56;53.23
52957;BME280;38819;42.692;23.342;2023-05-11T11:43:13;95531.25;;;15.49;53.13
52957;BME280;38819;42.692;23.342;2023-05-11T11:46:01;95530.47;;;15.57;52.29
52957;BME280;38819;42.692;23.342;2023-05-11T11:48:31;95521.94;;;15.42;52.50
52957;BME280;38819;42.692;23.342;2023-05-11T11:51:04;95525.47;;;15.42;52.65
52957;BME280;38819;42.692;23.342;2023-05-11T11:56:02;95527.78;;;15.17;52.80
52957;BME280;38819;42.692;23.342;2023-05-11T12:01:15;95533.78;;;15.37;53.02
52957;BME280;38819;42.692;23.342;2023-05-11T12:03:43;95531.53;;;15.39;52.59
52957;BME280;38819;42.692;23.342;2023-05-11T12:06:09;95525.81;;;15.49;53.04
52957;BME280;38819;42.692;23.342;2023-05-11T12:08:36;95522.94;;;15.54;52.68
52957;BME280;38819;42.692;23.342;2023-05-11T12:11:03;95528.72;;;15.62;52.01
52957;BME280;38819;42.692;23.342;2023-05-11T12:13:30;95525.19;;;15.52;52.45
52957;BME280;38819;42.692;23.342;2023-05-11T12:18:34;95515.72;;;15.50;53.14
52957;BME280;38819;42.692;23.342;2023-05-11T12:21:01;95527.13;;;15.52;52.01
52957;BME280;38819;42.692;23.342;2023-05-11T12:23:26;95507.72;;;15.53;52.09
52957;BME280;38819;42.692;23.342;2023-05-11T12:26:05;95510.94;;;15.55;52.06
52957;BME280;38819;42.692;23.342;2023-05-11T12:28:34;95510.63;;;15.57;51.79
52957;BME280;38819;42.692;23.342;2023-05-11T12:31:00;95510.63;;;15.66;52.18
52957;BME280;38819;42.692;23.342;2023-05-11T12:33:25;95502.63;;;15.61;51.85
52957;BME280;38819;42.692;23.342;2023-05-11T12:35:52;95505.81;;;15.63;52.22
52957;BME280;38819;42.692;23.342;2023-05-11T12:38:18;95494.78;;;15.68;52.07
52957;BME280;38819;42.692;23.342;2023-05-11T12:40:53;95486.94;;;15.66;51.80
52957;BME280;38819;42.692;23.342;2023-05-11T12:43:20;95484.69;;;15.68;51.42
52957;BME280;38819;42.692;23.342;2023-05-11T12:45:47;95476.56;;;15.77;51.12
52957;BME280;38819;42.692;23.342;2023-05-11T12:48:13;95487.63;;;15.81;51.01
52957;BME280;38819;42.692;23.342;2023-05-11T12:50:40;95486.84;;;15.89;50.78
52957;BME280;38819;42.692;23.342;2023-05-11T12:55:39;95480.25;;;15.81;51.20
52957;BME280;38819;42.692;23.342;2023-05-11T12:58:07;95477.22;;;15.83;51.46
52957;BME280;38819;42.692;23.342;2023-05-11T13:00:33;95473.63;;;15.65;51.03
52957;BME280;38819;42.692;23.342;2023-05-11T13:02:58;95476.03;;;15.66;51.34
52957;BME280;38819;42.692;23.342;2023-05-11T13:05:25;95476.69;;;15.72;51.17
52957;BME280;38819;42.692;23.342;2023-05-11T13:08:04;95479.22;;;15.68;51.18
52957;BME280;38819;42.692;23.342;2023-05-11T13:10:30;95464.31;;;15.48;51.50
52957;BME280;38819;42.692;23.342;2023-05-11T13:12:55;95468.00;;;15.44;51.26
52957;BME280;38819;42.692;23.342;2023-05-11T13:15:22;95463.19;;;15.41;51.42
52957;BME280;38819;42.692;23.342;2023-05-11T13:17:58;95460.00;;;15.47;51.67
52957;BME280;38819;42.692;23.342;2023-05-11T13:20:32;95465.63;;;15.60;51.74
52957;BME280;38819;42.692;23.342;2023-05-11T13:23:05;95472.53;;;15.57;51.94
52957;BME280;38819;42.692;23.342;2023-05-11T13:25:32;95464.50;;;15.61;51.81
52957;BME280;38819;42.692;23.342;2023-05-11T13:27:58;95461.78;;;15.61;51.87
52957;BME280;38819;42.692;23.342;2023-05-11T13:30:26;95465.81;;;15.72;51.61
52957;BME280;38819;42.692;23.342;2023-05-11T13:32:51;95456.66;;;15.68;51.87
52957;BME280;38819;42.692;23.342;2023-05-11T13:35:16;95453.94;;;15.59;51.36
52957;BME280;38819;42.692;23.342;2023-05-11T13:37:42;95459.22;;;15.64;51.54
52957;BME280;38819;42.692;23.342;2023-05-11T13:40:08;95452.81;;;15.69;51.35
52957;BME280;38819;42.692;23.342;2023-05-11T13:42:35;95456.97;;;15.75;51.27
52957;BME280;38819;42.692;23.342;2023-05-11T13:45:01;95451.91;;;15.82;51.39